tititudorancea.com
Station Historical Data
Daily Summary for Nil La, TWC- Units:  Both    English   Metric
« Previous Day
Next Day »
Daily Weekly Monthly Yearly Custom
  High: Low: Average:
Temperature: TemperatureF °F /  -17.8 °C 38.4 °F /  3.6 °C 49.4 °F /  9.7 °C
Dew Point: DewpointF °F /  -17.8 °C 36.6 °F /  2.6 °C 42.7 °F /  5.9 °C
Humidity: Humidity % 56 % 79 %
Wind Speed: WindSpeedMPH mph /  0 km/h - 4.6 mph /  7.4 km/h
Wind Gust: WindSpeedGustMPH mph /  0 km/h - -
Wind:- - East
Pressure: PressureIn in /  0 hPa 30.23 in /  1023.6 hPa -
Precipitation: 0.01 in /  0.25 mm    
Historical Graphs
 
 
Ararat weather Find more about Weather in Ararat, AU


 



 


Tabular Data for Nil La, TWC-
Time Temperature Dew Point Pressure Wind Wind Speed Wind Gust Humidity Rainfall Rate (Hourly)
TemperatureF °F /  -17.8 °C DewpointF °F /  -17.8 °C PressureIn in /  0 hPa Calm     Humidity % HourlyPrecipIn in /  0 mm
00:04 38.5 °F /  3.6 °C 36.7 °F /  2.6 °C 30.30 in /  1026 hPa Calm     93 % 0.00 in /  0 mm
00:09 38.4 °F /  3.6 °C 36.6 °F /  2.6 °C 30.30 in /  1026 hPa SE 1.2 mph /  1.9 km/h   93 % 0.00 in /  0 mm
00:14 38.5 °F /  3.6 °C 36.9 °F /  2.7 °C 30.30 in /  1026 hPa SE 1.2 mph /  1.9 km/h   94 % 0.00 in /  0 mm
00:19 38.9 °F /  3.8 °C 37.3 °F /  2.9 °C 30.30 in /  1026 hPa Calm     94 % 0.00 in /  0 mm
00:24 39.2 °F /  4 °C 37.6 °F /  3.1 °C 30.30 in /  1026 hPa SE 2.3 mph /  3.7 km/h 2.3 mph /  3.7 km/h 94 % 0.00 in /  0 mm
00:29 39.6 °F /  4.2 °C 38.0 °F /  3.3 °C 30.29 in /  1025.6 hPa SE 2.3 mph /  3.7 km/h 2.3 mph /  3.7 km/h 94 % 0.00 in /  0 mm
00:34 40.0 °F /  4.4 °C 38.4 °F /  3.6 °C 30.29 in /  1025.6 hPa SE 2.0 mph /  3.2 km/h 2.0 mph /  3.2 km/h 94 % 0.00 in /  0 mm
00:39 40.3 °F /  4.6 °C 38.7 °F /  3.7 °C 30.29 in /  1025.6 hPa SE 2.3 mph /  3.7 km/h 2.3 mph /  3.7 km/h 94 % 0.00 in /  0 mm
00:44 40.6 °F /  4.8 °C 39.0 °F /  3.9 °C 30.29 in /  1025.6 hPa SE 1.2 mph /  1.9 km/h 1.2 mph /  1.9 km/h 94 % 0.00 in /  0 mm
00:49 40.9 °F /  4.9 °C 39.3 °F /  4.1 °C 30.29 in /  1025.6 hPa SE 2.3 mph /  3.7 km/h 2.3 mph /  3.7 km/h 94 % 0.00 in /  0 mm
00:54 40.9 °F /  4.9 °C 39.3 °F /  4.1 °C 30.29 in /  1025.6 hPa SE 3.5 mph /  5.6 km/h 3.5 mph /  5.6 km/h 94 % 0.00 in /  0 mm
00:56 40.8 °F /  4.9 °C 39.2 °F /  4 °C 30.29 in /  1025.6 hPa SE 3.5 mph /  5.6 km/h 3.5 mph /  5.6 km/h 94 % 0.00 in /  0 mm
01:01 40.8 °F /  4.9 °C 39.2 °F /  4 °C 30.29 in /  1025.6 hPa SE 3.5 mph /  5.6 km/h 3.5 mph /  5.6 km/h 94 % 0.00 in /  0 mm
01:06 40.7 °F /  4.8 °C 38.8 °F /  3.8 °C 30.29 in /  1025.6 hPa SE 4.6 mph /  7.4 km/h 4.6 mph /  7.4 km/h 93 % 0.00 in /  0 mm
01:11 40.7 °F /  4.8 °C 39.1 °F /  3.9 °C 30.29 in /  1025.6 hPa SE 4.6 mph /  7.4 km/h 4.6 mph /  7.4 km/h 94 % 0.00 in /  0 mm
01:16 40.9 °F /  4.9 °C 39.3 °F /  4.1 °C 30.29 in /  1025.6 hPa SSE 3.5 mph /  5.6 km/h 3.5 mph /  5.6 km/h 94 % 0.00 in /  0 mm
01:21 41.2 °F /  5.1 °C 39.6 °F /  4.2 °C 30.29 in /  1025.6 hPa SE 3.5 mph /  5.6 km/h 3.5 mph /  5.6 km/h 94 % 0.00 in /  0 mm
01:26 41.5 °F /  5.3 °C 39.9 °F /  4.4 °C 30.29 in /  1025.6 hPa SE 3.5 mph /  5.6 km/h 3.5 mph /  5.6 km/h 94 % 0.00 in /  0 mm
01:31 41.8 °F /  5.4 °C 40.2 °F /  4.6 °C 30.30 in /  1026 hPa SE 3.5 mph /  5.6 km/h 3.5 mph /  5.6 km/h 94 % 0.00 in /  0 mm
01:36 42.0 °F /  5.6 °C 40.1 °F /  4.5 °C 30.30 in /  1026 hPa SE 2.3 mph /  3.7 km/h 2.3 mph /  3.7 km/h 93 % 0.00 in /  0 mm
01:41 41.9 °F /  5.5 °C 40.0 °F /  4.4 °C 30.30 in /  1026 hPa SE 2.3 mph /  3.7 km/h 2.3 mph /  3.7 km/h 93 % 0.00 in /  0 mm
01:46 41.9 °F /  5.5 °C 40.0 °F /  4.4 °C 30.30 in /  1026 hPa Calm     93 % 0.00 in /  0 mm
01:51 41.7 °F /  5.4 °C 39.5 °F /  4.2 °C 30.30 in /  1026 hPa SE 2.3 mph /  3.7 km/h 2.3 mph /  3.7 km/h 92 % 0.00 in /  0 mm
01:56 41.4 °F /  5.2 °C 39.3 °F /  4.1 °C 30.30 in /  1026 hPa SE 2.0 mph /  3.2 km/h 2.0 mph /  3.2 km/h 92 % 0.00 in /  0 mm
02:01 41.4 °F /  5.2 °C 39.3 °F /  4.1 °C 30.30 in /  1026 hPa SE 2.3 mph /  3.7 km/h 2.3 mph /  3.7 km/h 92 % 0.00 in /  0 mm
02:06 41.5 °F /  5.3 °C 39.6 °F /  4.2 °C 30.30 in /  1026 hPa SE 4.0 mph /  6.4 km/h 4.0 mph /  6.4 km/h 93 % 0.00 in /  0 mm
02:11 42.2 °F /  5.7 °C 40.3 °F /  4.6 °C 30.30 in /  1026 hPa SE 3.5 mph /  5.6 km/h 3.5 mph /  5.6 km/h 93 % 0.00 in /  0 mm
02:16 43.2 °F /  6.2 °C 41.6 °F /  5.3 °C 30.30 in /  1026 hPa SE 3.5 mph /  5.6 km/h 3.5 mph /  5.6 km/h 94 % 0.00 in /  0 mm
02:21 43.9 °F /  6.6 °C 41.7 °F /  5.4 °C 30.30 in /  1026 hPa SE 3.5 mph /  5.6 km/h 3.5 mph /  5.6 km/h 92 % 0.00 in /  0 mm
02:26 44.1 °F /  6.7 °C 41.6 °F /  5.3 °C 30.30 in /  1026 hPa SE 1.2 mph /  1.9 km/h 1.2 mph /  1.9 km/h 91 % 0.00 in /  0 mm
02:31 44.0 °F /  6.7 °C 41.3 °F /  5.2 °C 30.30 in /  1026 hPa Calm     90 % 0.00 in /  0 mm
02:36 43.1 °F /  6.2 °C 39.8 °F /  4.3 °C 30.30 in /  1026 hPa SE 2.3 mph /  3.7 km/h 2.3 mph /  3.7 km/h 88 % 0.00 in /  0 mm
02:41 42.0 °F /  5.6 °C 38.7 °F /  3.7 °C 30.29 in /  1025.6 hPa SE 2.3 mph /  3.7 km/h 2.3 mph /  3.7 km/h 88 % 0.00 in /  0 mm
02:46 41.4 °F /  5.2 °C 38.4 °F /  3.6 °C 30.30 in /  1026 hPa SE 2.3 mph /  3.7 km/h 2.3 mph /  3.7 km/h 89 % 0.00 in /  0 mm
02:51 40.9 °F /  4.9 °C 37.9 °F /  3.3 °C 30.30 in /  1026 hPa SE 1.2 mph /  1.9 km/h 1.2 mph /  1.9 km/h 89 % 0.00 in /  0 mm
02:56 40.7 °F /  4.8 °C 38.0 °F /  3.3 °C 30.30 in /  1026 hPa Calm     90 % 0.00 in /  0 mm
03:01 40.5 °F /  4.7 °C 37.8 °F /  3.2 °C 30.30 in /  1026 hPa Calm     90 % 0.00 in /  0 mm
03:06 40.4 °F /  4.7 °C 37.7 °F /  3.2 °C 30.30 in /  1026 hPa Calm     90 % 0.00 in /  0 mm
03:11 40.3 °F /  4.6 °C 37.6 °F /  3.1 °C 30.30 in /  1026 hPa Calm     90 % 0.00 in /  0 mm
03:16 40.3 °F /  4.6 °C 37.9 °F /  3.3 °C 30.29 in /  1025.6 hPa Calm     91 % 0.00 in /  0 mm
03:21 40.2 °F /  4.6 °C 37.8 °F /  3.2 °C 30.29 in /  1025.6 hPa SE 3.5 mph /  5.6 km/h 3.5 mph /  5.6 km/h 91 % 0.00 in /  0 mm
03:26 40.2 °F /  4.6 °C 37.8 °F /  3.2 °C 30.29 in /  1025.6 hPa SE 2.3 mph /  3.7 km/h 2.3 mph /  3.7 km/h 91 % 0.00 in /  0 mm
03:31 40.2 °F /  4.6 °C 37.8 °F /  3.2 °C 30.29 in /  1025.6 hPa SE 3.5 mph /  5.6 km/h 3.5 mph /  5.6 km/h 91 % 0.00 in /  0 mm
03:36 40.2 °F /  4.6 °C 37.8 °F /  3.2 °C 30.28 in /  1025.3 hPa SSE 3.5 mph /  5.6 km/h 3.5 mph /  5.6 km/h 91 % 0.00 in /  0 mm
03:41 40.2 °F /  4.6 °C 38.1 °F /  3.4 °C 30.28 in /  1025.3 hPa SE 3.5 mph /  5.6 km/h 3.5 mph /  5.6 km/h 92 % 0.00 in /  0 mm
03:46 40.1 °F /  4.5 °C 38.0 °F /  3.3 °C 30.28 in /  1025.3 hPa SE 2.3 mph /  3.7 km/h 2.3 mph /  3.7 km/h 92 % 0.00 in /  0 mm
03:51 40.2 °F /  4.6 °C 38.1 °F /  3.4 °C 30.28 in /  1025.3 hPa SE 1.0 mph /  1.6 km/h   92 % 0.00 in /  0 mm
03:56 40.4 °F /  4.7 °C 38.3 °F /  3.5 °C 30.28 in /  1025.3 hPa SE 1.2 mph /  1.9 km/h 1.2 mph /  1.9 km/h 92 % 0.00 in /  0 mm
04:01 40.4 °F /  4.7 °C 38.3 °F /  3.5 °C 30.28 in /  1025.3 hPa Calm     92 % 0.00 in /  0 mm
04:06 40.3 °F /  4.6 °C 38.2 °F /  3.4 °C 30.28 in /  1025.3 hPa Calm     92 % 0.00 in /  0 mm
04:07 40.2 °F /  4.6 °C 38.1 °F /  3.4 °C 30.28 in /  1025.3 hPa Calm     92 % 0.00 in /  0 mm
04:12 40.1 °F /  4.5 °C 38.0 °F /  3.3 °C 30.28 in /  1025.3 hPa SE 2.3 mph /  3.7 km/h 2.3 mph /  3.7 km/h 92 % 0.00 in /  0 mm
04:17 40.1 °F /  4.5 °C 38.0 °F /  3.3 °C 30.28 in /  1025.3 hPa SE 2.3 mph /  3.7 km/h 2.3 mph /  3.7 km/h 92 % 0.00 in /  0 mm
04:22 40.1 °F /  4.5 °C 38.0 °F /  3.3 °C 30.27 in /  1024.9 hPa SSE 2.3 mph /  3.7 km/h 2.3 mph /  3.7 km/h 92 % 0.00 in /  0 mm
04:27 40.2 °F /  4.6 °C 38.3 °F /  3.5 °C 30.27 in /  1024.9 hPa SE 5.0 mph /  8 km/h 5.0 mph /  8 km/h 93 % 0.00 in /  0 mm
04:32 40.7 °F /  4.8 °C 39.1 °F /  3.9 °C 30.28 in /  1025.3 hPa SSE 5.8 mph /  9.3 km/h 5.8 mph /  9.3 km/h 94 % 0.00 in /  0 mm
04:37 41.3 °F /  5.2 °C 39.4 °F /  4.1 °C 30.28 in /  1025.3 hPa SE 5.8 mph /  9.3 km/h 5.8 mph /  9.3 km/h 93 % 0.00 in /  0 mm
04:42 41.5 °F /  5.3 °C 39.6 °F /  4.2 °C 30.28 in /  1025.3 hPa SE 3.5 mph /  5.6 km/h 3.5 mph /  5.6 km/h 93 % 0.00 in /  0 mm
04:47 41.5 °F /  5.3 °C 39.6 °F /  4.2 °C 30.28 in /  1025.3 hPa SSE 3.5 mph /  5.6 km/h 3.5 mph /  5.6 km/h 93 % 0.00 in /  0 mm
04:52 41.6 °F /  5.3 °C 39.7 °F /  4.3 °C 30.28 in /  1025.3 hPa SE 4.6 mph /  7.4 km/h 4.6 mph /  7.4 km/h 93 % 0.00 in /  0 mm
04:57 41.8 °F /  5.4 °C 39.9 °F /  4.4 °C 30.28 in /  1025.3 hPa SE 4.6 mph /  7.4 km/h 4.6 mph /  7.4 km/h 93 % 0.00 in /  0 mm
05:02 41.9 °F /  5.5 °C 40.0 °F /  4.4 °C 30.28 in /  1025.3 hPa SSE 3.5 mph /  5.6 km/h 3.5 mph /  5.6 km/h 93 % 0.00 in /  0 mm
05:07 42.0 °F /  5.6 °C 40.1 °F /  4.5 °C 30.28 in /  1025.3 hPa SE 4.6 mph /  7.4 km/h 4.6 mph /  7.4 km/h 93 % 0.00 in /  0 mm
05:12 42.2 °F /  5.7 °C 40.6 °F /  4.8 °C 30.28 in /  1025.3 hPa SE 3.5 mph /  5.6 km/h 3.5 mph /  5.6 km/h 94 % 0.00 in /  0 mm
05:17 42.3 °F /  5.7 °C 40.4 °F /  4.7 °C 30.28 in /  1025.3 hPa SE 3.5 mph /  5.6 km/h 3.5 mph /  5.6 km/h 93 % 0.00 in /  0 mm
05:22 42.3 °F /  5.7 °C 40.4 °F /  4.7 °C 30.28 in /  1025.3 hPa SE 3.5 mph /  5.6 km/h 3.5 mph /  5.6 km/h 93 % 0.00 in /  0 mm
05:27 42.1 °F /  5.6 °C 40.2 °F /  4.6 °C 30.28 in /  1025.3 hPa SE 2.3 mph /  3.7 km/h 2.3 mph /  3.7 km/h 93 % 0.00 in /  0 mm
05:32 41.8 °F /  5.4 °C 39.6 °F /  4.2 °C 30.28 in /  1025.3 hPa SE 2.3 mph /  3.7 km/h 2.3 mph /  3.7 km/h 92 % 0.00 in /  0 mm
05:37 41.4 °F /  5.2 °C 39.3 °F /  4.1 °C 30.28 in /  1025.3 hPa SE 2.3 mph /  3.7 km/h 2.3 mph /  3.7 km/h 92 % 0.00 in /  0 mm
05:42 41.0 °F /  5 °C 38.9 °F /  3.8 °C 30.28 in /  1025.3 hPa SSE 2.3 mph /  3.7 km/h 2.3 mph /  3.7 km/h 92 % 0.00 in /  0 mm
05:47 40.8 °F /  4.9 °C 38.9 °F /  3.8 °C 30.29 in /  1025.6 hPa Calm     93 % 0.00 in /  0 mm
05:52 40.8 °F /  4.9 °C 38.9 °F /  3.8 °C 30.29 in /  1025.6 hPa Calm     93 % 0.00 in /  0 mm
05:57 40.8 °F /  4.9 °C 38.9 °F /  3.8 °C 30.29 in /  1025.6 hPa Calm     93 % 0.00 in /  0 mm
06:02 40.8 °F /  4.9 °C 38.9 °F /  3.8 °C 30.29 in /  1025.6 hPa Calm     93 % 0.00 in /  0 mm
06:07 40.8 °F /  4.9 °C 38.9 °F /  3.8 °C 30.30 in /  1026 hPa SE 1.2 mph /  1.9 km/h 1.2 mph /  1.9 km/h 93 % 0.00 in /  0 mm
06:12 40.9 °F /  4.9 °C 39.3 °F /  4.1 °C 30.30 in /  1026 hPa SE 2.3 mph /  3.7 km/h 2.3 mph /  3.7 km/h 94 % 0.00 in /  0 mm
06:17 41.1 °F /  5.1 °C 39.5 °F /  4.2 °C 30.29 in /  1025.6 hPa SE 4.0 mph /  6.4 km/h 4.0 mph /  6.4 km/h 94 % 0.00 in /  0 mm
06:22 41.4 °F /  5.2 °C 39.8 °F /  4.3 °C 30.30 in /  1026 hPa SE 4.6 mph /  7.4 km/h 4.6 mph /  7.4 km/h 94 % 0.00 in /  0 mm
06:27 42.0 °F /  5.6 °C 40.7 °F /  4.8 °C 30.30 in /  1026 hPa SE 4.6 mph /  7.4 km/h 4.6 mph /  7.4 km/h 95 % 0.00 in /  0 mm
06:32 42.4 °F /  5.8 °C 41.1 °F /  5.1 °C 30.29 in /  1025.6 hPa SE 4.6 mph /  7.4 km/h 4.6 mph /  7.4 km/h 95 % 0.00 in /  0 mm
06:37 42.6 °F /  5.9 °C 41.0 °F /  5 °C 30.30 in /  1026 hPa SE 2.3 mph /  3.7 km/h 2.3 mph /  3.7 km/h 94 % 0.00 in /  0 mm
06:42 42.3 °F /  5.7 °C 40.4 °F /  4.7 °C 30.30 in /  1026 hPa SE 2.3 mph /  3.7 km/h 2.3 mph /  3.7 km/h 93 % 0.00 in /  0 mm
06:47 42.0 °F /  5.6 °C 40.1 °F /  4.5 °C 30.30 in /  1026 hPa SE 1.2 mph /  1.9 km/h   93 % 0.00 in /  0 mm
06:52 41.9 °F /  5.5 °C 40.3 °F /  4.6 °C 30.31 in /  1026.3 hPa Calm     94 % 0.00 in /  0 mm
06:57 41.9 °F /  5.5 °C 40.3 °F /  4.6 °C 30.31 in /  1026.3 hPa Calm     94 % 0.00 in /  0 mm
07:02 41.9 °F /  5.5 °C 40.3 °F /  4.6 °C 30.31 in /  1026.3 hPa SE 3.5 mph /  5.6 km/h 3.5 mph /  5.6 km/h 94 % 0.00 in /  0 mm
07:07 41.9 °F /  5.5 °C 40.3 °F /  4.6 °C 30.31 in /  1026.3 hPa SE 2.3 mph /  3.7 km/h 2.3 mph /  3.7 km/h 94 % 0.00 in /  0 mm
07:12 42.1 °F /  5.6 °C 40.5 °F /  4.7 °C 30.31 in /  1026.3 hPa SE 3.5 mph /  5.6 km/h 3.5 mph /  5.6 km/h 94 % 0.00 in /  0 mm
07:17 42.2 °F /  5.7 °C 40.6 °F /  4.8 °C 30.31 in /  1026.3 hPa SSE 3.5 mph /  5.6 km/h 3.5 mph /  5.6 km/h 94 % 0.00 in /  0 mm
07:22 41.9 °F /  5.5 °C 40.0 °F /  4.4 °C 30.31 in /  1026.3 hPa SE 4.6 mph /  7.4 km/h 4.6 mph /  7.4 km/h 93 % 0.01 in /  0.25 mm
07:27 41.2 °F /  5.1 °C 39.3 °F /  4.1 °C 30.31 in /  1026.3 hPa SE 3.5 mph /  5.6 km/h 3.5 mph /  5.6 km/h 93 % 0.01 in /  0.25 mm
07:32 40.5 °F /  4.7 °C 38.6 °F /  3.7 °C 30.30 in /  1026 hPa SE 2.3 mph /  3.7 km/h 2.3 mph /  3.7 km/h 93 % 0.01 in /  0.25 mm
07:37 40.1 °F /  4.5 °C 38.5 °F /  3.6 °C 30.31 in /  1026.3 hPa SE 4.6 mph /  7.4 km/h 4.6 mph /  7.4 km/h 94 % 0.01 in /  0.25 mm
07:42 40.3 °F /  4.6 °C 38.7 °F /  3.7 °C 30.31 in /  1026.3 hPa SE 4.0 mph /  6.4 km/h 4.0 mph /  6.4 km/h 94 % 0.01 in /  0.25 mm
07:47 40.5 °F /  4.7 °C 38.9 °F /  3.8 °C 30.31 in /  1026.3 hPa SE 5.8 mph /  9.3 km/h 5.8 mph /  9.3 km/h 94 % 0.01 in /  0.25 mm
07:52 40.9 °F /  4.9 °C 39.6 °F /  4.2 °C 30.31 in /  1026.3 hPa SE 5.0 mph /  8 km/h 5.0 mph /  8 km/h 95 % 0.01 in /  0.25 mm
07:57 41.3 °F /  5.2 °C 40.0 °F /  4.4 °C 30.31 in /  1026.3 hPa SE 4.6 mph /  7.4 km/h 4.6 mph /  7.4 km/h 95 % 0.01 in /  0.25 mm
08:02 41.6 °F /  5.3 °C 40.3 °F /  4.6 °C 30.31 in /  1026.3 hPa SE 2.3 mph /  3.7 km/h 2.3 mph /  3.7 km/h 95 % 0.01 in /  0.25 mm
08:07 42.1 °F /  5.6 °C 40.8 °F /  4.9 °C 30.31 in /  1026.3 hPa SE 2.3 mph /  3.7 km/h 2.3 mph /  3.7 km/h 95 % 0.01 in /  0.25 mm
08:12 42.5 °F /  5.8 °C 41.2 °F /  5.1 °C 30.31 in /  1026.3 hPa SE 4.0 mph /  6.4 km/h 4.0 mph /  6.4 km/h 95 % 0.01 in /  0.25 mm
08:17 43.0 °F /  6.1 °C 41.7 °F /  5.4 °C 30.31 in /  1026.3 hPa SE 3.5 mph /  5.6 km/h 3.5 mph /  5.6 km/h 95 % 0.01 in /  0.25 mm
08:18 43.1 °F /  6.2 °C 41.8 °F /  5.4 °C 30.31 in /  1026.3 hPa SE 3.5 mph /  5.6 km/h 3.5 mph /  5.6 km/h 95 % 0.01 in /  0.25 mm
08:23 43.6 °F /  6.4 °C 42.3 °F /  5.7 °C 30.32 in /  1026.6 hPa SE 3.5 mph /  5.6 km/h 3.5 mph /  5.6 km/h 95 % 0.00 in /  0 mm
08:28 44.2 °F /  6.8 °C 42.9 °F /  6.1 °C 30.32 in /  1026.6 hPa SE 3.5 mph /  5.6 km/h 3.5 mph /  5.6 km/h 95 % 0.00 in /  0 mm
08:33 44.7 °F /  7.1 °C 43.4 °F /  6.3 °C 30.32 in /  1026.6 hPa SE 4.6 mph /  7.4 km/h 4.6 mph /  7.4 km/h 95 % 0.00 in /  0 mm
08:38 45.1 °F /  7.3 °C 43.8 °F /  6.6 °C 30.32 in /  1026.6 hPa SE 5.8 mph /  9.3 km/h 5.8 mph /  9.3 km/h 95 % 0.00 in /  0 mm
08:43 45.3 °F /  7.4 °C 44.0 °F /  6.7 °C 30.32 in /  1026.6 hPa SE 6.0 mph /  9.7 km/h 6.0 mph /  9.7 km/h 95 % 0.00 in /  0 mm
08:48 45.6 °F /  7.6 °C 44.3 °F /  6.8 °C 30.32 in /  1026.6 hPa SE 5.8 mph /  9.3 km/h 5.8 mph /  9.3 km/h 95 % 0.00 in /  0 mm
08:53 46.0 °F /  7.8 °C 44.6 °F /  7 °C 30.32 in /  1026.6 hPa SE 4.6 mph /  7.4 km/h 4.6 mph /  7.4 km/h 95 % 0.00 in /  0 mm
08:58 46.5 °F /  8.1 °C 44.9 °F /  7.2 °C 30.32 in /  1026.6 hPa SE 4.6 mph /  7.4 km/h 4.6 mph /  7.4 km/h 94 % 0.00 in /  0 mm
09:03 47.1 °F /  8.4 °C 45.5 °F /  7.5 °C 30.32 in /  1026.6 hPa SE 5.8 mph /  9.3 km/h 5.8 mph /  9.3 km/h 94 % 0.00 in /  0 mm
09:08 47.8 °F /  8.8 °C 46.2 °F /  7.9 °C 30.32 in /  1026.6 hPa SE 6.9 mph /  11.1 km/h 6.9 mph /  11.1 km/h 94 % 0.00 in /  0 mm
09:13 48.4 °F /  9.1 °C 46.5 °F /  8.1 °C 30.32 in /  1026.6 hPa SE 4.6 mph /  7.4 km/h 4.6 mph /  7.4 km/h 93 % 0.00 in /  0 mm
09:18 49.2 °F /  9.6 °C 47.3 °F /  8.5 °C 30.32 in /  1026.6 hPa SSE 4.6 mph /  7.4 km/h 4.6 mph /  7.4 km/h 93 % 0.00 in /  0 mm
09:23 49.9 °F /  9.9 °C 47.7 °F /  8.7 °C 30.32 in /  1026.6 hPa SE 4.6 mph /  7.4 km/h 4.6 mph /  7.4 km/h 92 % 0.00 in /  0 mm
09:28 50.7 °F /  10.4 °C 48.2 °F /  9 °C 30.32 in /  1026.6 hPa SSE 5.0 mph /  8 km/h 5.0 mph /  8 km/h 91 % 0.00 in /  0 mm
09:33 51.5 °F /  10.8 °C 48.7 °F /  9.3 °C 30.32 in /  1026.6 hPa SE 6.9 mph /  11.1 km/h 6.9 mph /  11.1 km/h 90 % 0.00 in /  0 mm
09:38 52.3 °F /  11.3 °C 48.9 °F /  9.4 °C 30.32 in /  1026.6 hPa ESE 5.8 mph /  9.3 km/h 5.8 mph /  9.3 km/h 88 % 0.00 in /  0 mm
09:43 53.0 °F /  11.7 °C 48.9 °F /  9.4 °C 30.32 in /  1026.6 hPa ESE 9.0 mph /  14.5 km/h 9.0 mph /  14.5 km/h 86 % 0.00 in /  0 mm
09:48 53.3 °F /  11.8 °C 48.6 °F /  9.2 °C 30.31 in /  1026.3 hPa ESE 4.6 mph /  7.4 km/h 4.6 mph /  7.4 km/h 84 % 0.00 in /  0 mm
09:53 53.6 °F /  12 °C 48.6 °F /  9.2 °C 30.32 in /  1026.6 hPa ESE 4.6 mph /  7.4 km/h 4.6 mph /  7.4 km/h 83 % 0.00 in /  0 mm
09:58 53.9 °F /  12.2 °C 48.5 °F /  9.2 °C 30.31 in /  1026.3 hPa ESE 8.0 mph /  12.9 km/h 8.0 mph /  12.9 km/h 82 % 0.00 in /  0 mm
10:03 53.9 °F /  12.2 °C 48.2 °F /  9 °C 30.32 in /  1026.6 hPa East 7.0 mph /  11.3 km/h 7.0 mph /  11.3 km/h 81 % 0.00 in /  0 mm
10:08 54.0 °F /  12.2 °C 48.3 °F /  9.1 °C 30.32 in /  1026.6 hPa ENE 6.0 mph /  9.7 km/h 6.0 mph /  9.7 km/h 81 % 0.00 in /  0 mm
10:13 54.3 °F /  12.4 °C 48.3 °F /  9.1 °C 30.32 in /  1026.6 hPa ENE 5.8 mph /  9.3 km/h 5.8 mph /  9.3 km/h 80 % 0.00 in /  0 mm
10:18 54.6 °F /  12.6 °C 48.6 °F /  9.2 °C 30.32 in /  1026.6 hPa ENE 6.9 mph /  11.1 km/h 6.9 mph /  11.1 km/h 80 % 0.00 in /  0 mm
10:23 54.9 °F /  12.7 °C 48.5 °F /  9.2 °C 30.31 in /  1026.3 hPa ENE 5.8 mph /  9.3 km/h 5.8 mph /  9.3 km/h 79 % 0.00 in /  0 mm
10:28 55.4 °F /  13 °C 49.0 °F /  9.4 °C 30.32 in /  1026.6 hPa ENE 5.8 mph /  9.3 km/h 5.8 mph /  9.3 km/h 79 % 0.00 in /  0 mm
10:33 55.7 °F /  13.2 °C 47.9 °F /  8.8 °C 30.32 in /  1026.6 hPa NE 10.4 mph /  16.7 km/h 10.4 mph /  16.7 km/h 75 % 0.00 in /  0 mm
10:38 56.1 °F /  13.4 °C 47.6 °F /  8.7 °C 30.32 in /  1026.6 hPa NNE 10.4 mph /  16.7 km/h 10.4 mph /  16.7 km/h 73 % 0.00 in /  0 mm
10:43 56.2 °F /  13.4 °C 47.3 °F /  8.5 °C 30.32 in /  1026.6 hPa NNE 8.1 mph /  13 km/h 8.1 mph /  13 km/h 72 % 0.00 in /  0 mm
10:48 56.3 °F /  13.5 °C 47.4 °F /  8.6 °C 30.32 in /  1026.6 hPa NNE 10.4 mph /  16.7 km/h 10.4 mph /  16.7 km/h 72 % 0.00 in /  0 mm
10:53 56.5 °F /  13.6 °C 47.2 °F /  8.4 °C 30.31 in /  1026.3 hPa North 10.4 mph /  16.7 km/h 10.4 mph /  16.7 km/h 71 % 0.00 in /  0 mm
10:58 56.7 °F /  13.7 °C 47.0 °F /  8.3 °C 30.31 in /  1026.3 hPa North 11.5 mph /  18.5 km/h 11.5 mph /  18.5 km/h 70 % 0.00 in /  0 mm
10:59 56.7 °F /  13.7 °C 46.6 °F /  8.1 °C 30.31 in /  1026.3 hPa North 11.5 mph /  18.5 km/h 11.5 mph /  18.5 km/h 69 % 0.00 in /  0 mm
11:04 56.9 °F /  13.8 °C 46.8 °F /  8.2 °C 30.31 in /  1026.3 hPa North 9.2 mph /  14.8 km/h 9.2 mph /  14.8 km/h 69 % 0.00 in /  0 mm
11:06 57.0 °F /  13.9 °C 46.5 °F /  8.1 °C 30.31 in /  1026.3 hPa North 11.5 mph /  18.5 km/h 11.5 mph /  18.5 km/h 68 % 0.00 in /  0 mm
11:11 57.2 °F /  14 °C 46.3 °F /  7.9 °C 30.31 in /  1026.3 hPa North 11.5 mph /  18.5 km/h 11.5 mph /  18.5 km/h 67 % 0.00 in /  0 mm
11:16 57.2 °F /  14 °C 46.3 °F /  7.9 °C 30.31 in /  1026.3 hPa North 11.5 mph /  18.5 km/h 11.5 mph /  18.5 km/h 67 % 0.00 in /  0 mm
11:21 57.2 °F /  14 °C 46.3 °F /  7.9 °C 30.31 in /  1026.3 hPa North 8.1 mph /  13 km/h 8.1 mph /  13 km/h 67 % 0.00 in /  0 mm
11:26 57.1 °F /  13.9 °C 46.2 °F /  7.9 °C 30.31 in /  1026.3 hPa North 9.2 mph /  14.8 km/h 9.2 mph /  14.8 km/h 67 % 0.00 in /  0 mm
11:31 57.1 °F /  13.9 °C 45.8 °F /  7.7 °C 30.30 in /  1026 hPa North 9.2 mph /  14.8 km/h 9.2 mph /  14.8 km/h 66 % 0.00 in /  0 mm
11:36 56.9 °F /  13.8 °C 45.7 °F /  7.6 °C 30.30 in /  1026 hPa North 10.0 mph /  16.1 km/h 10.0 mph /  16.1 km/h 66 % 0.00 in /  0 mm
11:41 56.8 °F /  13.8 °C 45.6 °F /  7.6 °C 30.30 in /  1026 hPa North 6.9 mph /  11.1 km/h 6.9 mph /  11.1 km/h 66 % 0.00 in /  0 mm
11:46 57.0 °F /  13.9 °C 46.1 °F /  7.8 °C 30.30 in /  1026 hPa North 8.1 mph /  13 km/h 8.1 mph /  13 km/h 67 % 0.00 in /  0 mm
11:51 57.3 °F /  14.1 °C 45.6 °F /  7.6 °C 30.29 in /  1025.6 hPa North 8.1 mph /  13 km/h 8.1 mph /  13 km/h 65 % 0.00 in /  0 mm
11:56 57.5 °F /  14.2 °C 45.0 °F /  7.2 °C 30.29 in /  1025.6 hPa North 10.4 mph /  16.7 km/h 10.4 mph /  16.7 km/h 63 % 0.00 in /  0 mm
12:01 57.9 °F /  14.4 °C 45.4 °F /  7.4 °C 30.28 in /  1025.3 hPa North 7.0 mph /  11.3 km/h 7.0 mph /  11.3 km/h 63 % 0.00 in /  0 mm
12:06 58.2 °F /  14.6 °C 45.2 °F /  7.3 °C 30.28 in /  1025.3 hPa North 4.6 mph /  7.4 km/h 4.6 mph /  7.4 km/h 62 % 0.00 in /  0 mm
12:11 58.2 °F /  14.6 °C 44.8 °F /  7.1 °C 30.28 in /  1025.3 hPa North 9.2 mph /  14.8 km/h 9.2 mph /  14.8 km/h 61 % 0.00 in /  0 mm
12:16 58.4 °F /  14.7 °C 45.0 °F /  7.2 °C 30.27 in /  1024.9 hPa North 6.9 mph /  11.1 km/h 6.9 mph /  11.1 km/h 61 % 0.00 in /  0 mm
12:21 58.9 °F /  14.9 °C 45.5 °F /  7.5 °C 30.27 in /  1024.9 hPa North 4.6 mph /  7.4 km/h 4.6 mph /  7.4 km/h 61 % 0.00 in /  0 mm
12:27 59.5 °F /  15.3 °C 45.6 °F /  7.6 °C 30.27 in /  1024.9 hPa North 5.0 mph /  8 km/h 5.0 mph /  8 km/h 60 % 0.00 in /  0 mm
12:32 59.6 °F /  15.3 °C 45.2 °F /  7.3 °C 30.27 in /  1024.9 hPa North 8.1 mph /  13 km/h 8.1 mph /  13 km/h 59 % 0.00 in /  0 mm
12:37 59.5 °F /  15.3 °C 44.7 °F /  7.1 °C 30.26 in /  1024.6 hPa North 6.9 mph /  11.1 km/h 6.9 mph /  11.1 km/h 58 % 0.00 in /  0 mm
12:41 59.4 °F /  15.2 °C 44.6 °F /  7 °C 30.26 in /  1024.6 hPa North 8.1 mph /  13 km/h 8.1 mph /  13 km/h 58 % 0.00 in /  0 mm
12:46 59.4 °F /  15.2 °C 44.2 °F /  6.8 °C 30.26 in /  1024.6 hPa North 11.5 mph /  18.5 km/h 11.5 mph /  18.5 km/h 57 % 0.00 in /  0 mm
12:51 59.4 °F /  15.2 °C 43.7 °F /  6.5 °C 30.26 in /  1024.6 hPa North 10.4 mph /  16.7 km/h 10.4 mph /  16.7 km/h 56 % 0.00 in /  0 mm
12:56 59.2 °F /  15.1 °C 44.0 °F /  6.7 °C 30.26 in /  1024.6 hPa North 8.1 mph /  13 km/h 8.1 mph /  13 km/h 57 % 0.00 in /  0 mm
13:01 58.9 °F /  14.9 °C 44.6 °F /  7 °C 30.26 in /  1024.6 hPa North 8.1 mph /  13 km/h 8.1 mph /  13 km/h 59 % 0.00 in /  0 mm
13:06 58.9 °F /  14.9 °C 44.6 °F /  7 °C 30.26 in /  1024.6 hPa North 8.1 mph /  13 km/h 8.1 mph /  13 km/h 59 % 0.00 in /  0 mm
13:11 58.9 °F /  14.9 °C 45.5 °F /  7.5 °C 30.25 in /  1024.3 hPa North 3.5 mph /  5.6 km/h 3.5 mph /  5.6 km/h 61 % 0.00 in /  0 mm
13:16 59.3 °F /  15.2 °C 45.0 °F /  7.2 °C 30.25 in /  1024.3 hPa North 9.2 mph /  14.8 km/h 9.2 mph /  14.8 km/h 59 % 0.00 in /  0 mm
13:21 59.1 °F /  15.1 °C 45.2 °F /  7.3 °C 30.25 in /  1024.3 hPa North 6.9 mph /  11.1 km/h 6.9 mph /  11.1 km/h 60 % 0.00 in /  0 mm
13:26 59.2 °F /  15.1 °C 45.8 °F /  7.7 °C 30.25 in /  1024.3 hPa North 9.2 mph /  14.8 km/h 9.2 mph /  14.8 km/h 61 % 0.00 in /  0 mm
13:31 59.3 °F /  15.2 °C 46.3 °F /  7.9 °C 30.25 in /  1024.3 hPa North 11.5 mph /  18.5 km/h 11.5 mph /  18.5 km/h 62 % 0.00 in /  0 mm
13:36 59.6 °F /  15.3 °C 46.6 °F /  8.1 °C 30.25 in /  1024.3 hPa North 8.1 mph /  13 km/h 8.1 mph /  13 km/h 62 % 0.00 in /  0 mm
13:41 59.8 °F /  15.4 °C 46.3 °F /  7.9 °C 30.25 in /  1024.3 hPa North 9.2 mph /  14.8 km/h 9.2 mph /  14.8 km/h 61 % 0.00 in /  0 mm
13:46 60.1 °F /  15.6 °C 46.2 °F /  7.9 °C 30.25 in /  1024.3 hPa North 10.4 mph /  16.7 km/h 10.4 mph /  16.7 km/h 60 % 0.00 in /  0 mm
13:51 60.1 °F /  15.6 °C 46.2 °F /  7.9 °C 30.24 in /  1023.9 hPa North 9.0 mph /  14.5 km/h 9.0 mph /  14.5 km/h 60 % 0.00 in /  0 mm
13:56 60.0 °F /  15.6 °C 46.1 °F /  7.8 °C 30.24 in /  1023.9 hPa North 11.5 mph /  18.5 km/h 11.5 mph /  18.5 km/h 60 % 0.00 in /  0 mm
14:02 60.0 °F /  15.6 °C 45.6 °F /  7.6 °C 30.24 in /  1023.9 hPa North 10.4 mph /  16.7 km/h 10.4 mph /  16.7 km/h 59 % 0.00 in /  0 mm
14:07 59.7 °F /  15.4 °C 45.8 °F /  7.7 °C 30.24 in /  1023.9 hPa North 6.9 mph /  11.1 km/h 6.9 mph /  11.1 km/h 60 % 0.00 in /  0 mm
14:12 59.7 °F /  15.4 °C 46.2 °F /  7.9 °C 30.24 in /  1023.9 hPa North 10.0 mph /  16.1 km/h 10.0 mph /  16.1 km/h 61 % 0.00 in /  0 mm
14:17 59.6 °F /  15.3 °C 46.1 °F /  7.8 °C 30.24 in /  1023.9 hPa North 11.5 mph /  18.5 km/h 11.5 mph /  18.5 km/h 61 % 0.00 in /  0 mm
14:22 59.5 °F /  15.3 °C 45.6 °F /  7.6 °C 30.24 in /  1023.9 hPa North 11.5 mph /  18.5 km/h 11.5 mph /  18.5 km/h 60 % 0.00 in /  0 mm
14:27 59.6 °F /  15.3 °C 46.6 °F /  8.1 °C 30.24 in /  1023.9 hPa NNE 9.2 mph /  14.8 km/h 9.2 mph /  14.8 km/h 62 % 0.00 in /  0 mm
14:32 59.7 °F /  15.4 °C 46.2 °F /  7.9 °C 30.24 in /  1023.9 hPa NNE 9.2 mph /  14.8 km/h 9.2 mph /  14.8 km/h 61 % 0.00 in /  0 mm
14:37 59.9 °F /  15.5 °C 46.0 °F /  7.8 °C 30.24 in /  1023.9 hPa North 10.4 mph /  16.7 km/h 10.4 mph /  16.7 km/h 60 % 0.00 in /  0 mm
14:42 59.8 °F /  15.4 °C 46.3 °F /  7.9 °C 30.24 in /  1023.9 hPa North 8.0 mph /  12.9 km/h 8.0 mph /  12.9 km/h 61 % 0.00 in /  0 mm
14:47 59.8 °F /  15.4 °C 46.7 °F /  8.2 °C 30.24 in /  1023.9 hPa North 8.1 mph /  13 km/h 8.1 mph /  13 km/h 62 % 0.00 in /  0 mm
14:52 59.6 °F /  15.3 °C 46.6 °F /  8.1 °C 30.24 in /  1023.9 hPa North 9.2 mph /  14.8 km/h 9.2 mph /  14.8 km/h 62 % 0.00 in /  0 mm
14:57 59.5 °F /  15.3 °C 46.9 °F /  8.3 °C 30.24 in /  1023.9 hPa North 6.0 mph /  9.7 km/h 6.0 mph /  9.7 km/h 63 % 0.00 in /  0 mm
15:02 59.5 °F /  15.3 °C 46.9 °F /  8.3 °C 30.24 in /  1023.9 hPa North 3.5 mph /  5.6 km/h 3.5 mph /  5.6 km/h 63 % 0.00 in /  0 mm
15:07 59.7 °F /  15.4 °C 46.7 °F /  8.2 °C 30.24 in /  1023.9 hPa North 10.4 mph /  16.7 km/h 10.4 mph /  16.7 km/h 62 % 0.00 in /  0 mm
15:12 59.8 °F /  15.4 °C 46.3 °F /  7.9 °C 30.24 in /  1023.9 hPa North 5.8 mph /  9.3 km/h 5.8 mph /  9.3 km/h 61 % 0.00 in /  0 mm
15:17 59.7 °F /  15.4 °C 46.7 °F /  8.2 °C 30.24 in /  1023.9 hPa North 6.9 mph /  11.1 km/h 6.9 mph /  11.1 km/h 62 % 0.00 in /  0 mm
15:22 59.9 °F /  15.5 °C 46.8 °F /  8.2 °C 30.24 in /  1023.9 hPa NNE 6.9 mph /  11.1 km/h 6.9 mph /  11.1 km/h 62 % 0.00 in /  0 mm
15:27 60.1 °F /  15.6 °C 47.0 °F /  8.3 °C 30.24 in /  1023.9 hPa NNE 6.9 mph /  11.1 km/h 6.9 mph /  11.1 km/h 62 % 0.00 in /  0 mm
15:32 60.1 °F /  15.6 °C 46.6 °F /  8.1 °C 30.24 in /  1023.9 hPa North 9.2 mph /  14.8 km/h 9.2 mph /  14.8 km/h 61 % 0.00 in /  0 mm
15:37 60.0 °F /  15.6 °C 46.9 °F /  8.3 °C 30.24 in /  1023.9 hPa NNE 5.0 mph /  8 km/h 5.0 mph /  8 km/h 62 % 0.00 in /  0 mm
15:42 60.1 °F /  15.6 °C 46.6 °F /  8.1 °C 30.24 in /  1023.9 hPa NNE 4.6 mph /  7.4 km/h 4.6 mph /  7.4 km/h 61 % 0.00 in /  0 mm
15:47 60.2 °F /  15.7 °C 46.7 °F /  8.2 °C 30.24 in /  1023.9 hPa NNE 8.1 mph /  13 km/h 8.1 mph /  13 km/h 61 % 0.00 in /  0 mm
15:52 60.2 °F /  15.7 °C 46.7 °F /  8.2 °C 30.24 in /  1023.9 hPa NNE 5.0 mph /  8 km/h 5.0 mph /  8 km/h 61 % 0.00 in /  0 mm
15:57 60.2 °F /  15.7 °C 46.3 °F /  7.9 °C 30.24 in /  1023.9 hPa NNE 8.1 mph /  13 km/h 8.1 mph /  13 km/h 60 % 0.00 in /  0 mm
16:02 60.2 °F /  15.7 °C 45.8 °F /  7.7 °C 30.24 in /  1023.9 hPa NNE 6.9 mph /  11.1 km/h 6.9 mph /  11.1 km/h 59 % 0.00 in /  0 mm
16:07 60.2 °F /  15.7 °C 45.8 °F /  7.7 °C 30.24 in /  1023.9 hPa NNE 4.6 mph /  7.4 km/h 4.6 mph /  7.4 km/h 59 % 0.00 in /  0 mm
16:12 59.9 °F /  15.5 °C 45.5 °F /  7.5 °C 30.24 in /  1023.9 hPa NNE 6.0 mph /  9.7 km/h 6.0 mph /  9.7 km/h 59 % 0.00 in /  0 mm
16:17 59.5 °F /  15.3 °C 45.6 °F /  7.6 °C 30.24 in /  1023.9 hPa NNE 4.6 mph /  7.4 km/h 4.6 mph /  7.4 km/h 60 % 0.00 in /  0 mm
16:22 59.2 °F /  15.1 °C 45.3 °F /  7.4 °C 30.24 in /  1023.9 hPa NNE 5.8 mph /  9.3 km/h 5.8 mph /  9.3 km/h 60 % 0.00 in /  0 mm
16:27 59.0 °F /  15 °C 45.6 °F /  7.6 °C 30.24 in /  1023.9 hPa NNE 3.5 mph /  5.6 km/h 3.5 mph /  5.6 km/h 61 % 0.00 in /  0 mm
16:32 58.6 °F /  14.8 °C 45.2 °F /  7.3 °C 30.24 in /  1023.9 hPa NNE 2.3 mph /  3.7 km/h 2.3 mph /  3.7 km/h 61 % 0.00 in /  0 mm
16:37 58.2 °F /  14.6 °C 45.2 °F /  7.3 °C 30.24 in /  1023.9 hPa NNE 3.5 mph /  5.6 km/h 3.5 mph /  5.6 km/h 62 % 0.00 in /  0 mm
16:42 57.7 °F /  14.3 °C 45.2 °F /  7.3 °C 30.24 in /  1023.9 hPa NNE 3.5 mph /  5.6 km/h 3.5 mph /  5.6 km/h 63 % 0.00 in /  0 mm
16:47 57.3 °F /  14.1 °C 45.2 °F /  7.3 °C 30.24 in /  1023.9 hPa NNE 4.0 mph /  6.4 km/h 4.0 mph /  6.4 km/h 64 % 0.00 in /  0 mm
16:52 57.0 °F /  13.9 °C 44.9 °F /  7.2 °C 30.24 in /  1023.9 hPa NNE 3.5 mph /  5.6 km/h 3.5 mph /  5.6 km/h 64 % 0.00 in /  0 mm
16:57 56.5 °F /  13.6 °C 44.9 °F /  7.2 °C 30.24 in /  1023.9 hPa NNE 3.5 mph /  5.6 km/h 3.5 mph /  5.6 km/h 65 % 0.00 in /  0 mm
17:02 56.2 °F /  13.4 °C 44.6 °F /  7 °C 30.24 in /  1023.9 hPa NNE 3.5 mph /  5.6 km/h 3.5 mph /  5.6 km/h 65 % 0.00 in /  0 mm
17:07 55.9 °F /  13.3 °C 44.7 °F /  7.1 °C 30.24 in /  1023.9 hPa NNE 3.5 mph /  5.6 km/h 3.5 mph /  5.6 km/h 66 % 0.00 in /  0 mm
17:12 55.6 °F /  13.1 °C 44.4 °F /  6.9 °C 30.24 in /  1023.9 hPa NNE 3.5 mph /  5.6 km/h 3.5 mph /  5.6 km/h 66 % 0.00 in /  0 mm
17:17 55.4 °F /  13 °C 44.6 °F /  7 °C 30.24 in /  1023.9 hPa NNE 3.5 mph /  5.6 km/h 3.5 mph /  5.6 km/h 67 % 0.00 in /  0 mm
17:22 55.2 °F /  12.9 °C 44.4 °F /  6.9 °C 30.24 in /  1023.9 hPa NNE 2.3 mph /  3.7 km/h 2.3 mph /  3.7 km/h 67 % 0.00 in /  0 mm
17:27 54.8 °F /  12.7 °C 44.4 °F /  6.9 °C 30.24 in /  1023.9 hPa Calm     68 % 0.00 in /  0 mm
17:32 54.4 °F /  12.4 °C 44.1 °F /  6.7 °C 30.24 in /  1023.9 hPa Calm     68 % 0.00 in /  0 mm
17:37 54.0 °F /  12.2 °C 44.1 °F /  6.7 °C 30.24 in /  1023.9 hPa Calm     69 % 0.00 in /  0 mm
17:42 53.5 °F /  11.9 °C 44.0 °F /  6.7 °C 30.24 in /  1023.9 hPa Calm     70 % 0.00 in /  0 mm
17:47 52.9 °F /  11.6 °C 43.7 °F /  6.5 °C 30.23 in /  1023.6 hPa Calm     71 % 0.00 in /  0 mm
17:52 52.5 °F /  11.4 °C 43.7 °F /  6.5 °C 30.23 in /  1023.6 hPa Calm     72 % 0.00 in /  0 mm
17:57 52.2 °F /  11.2 °C 43.8 °F /  6.6 °C 30.23 in /  1023.6 hPa Calm     73 % 0.00 in /  0 mm
18:02 52.0 °F /  11.1 °C 44.0 °F /  6.7 °C 30.24 in /  1023.9 hPa NNE 2.3 mph /  3.7 km/h 2.3 mph /  3.7 km/h 74 % 0.00 in /  0 mm
18:07 51.9 °F /  11.1 °C 43.9 °F /  6.6 °C 30.23 in /  1023.6 hPa NNE 1.2 mph /  1.9 km/h 1.2 mph /  1.9 km/h 74 % 0.00 in /  0 mm
18:12 51.9 °F /  11.1 °C 43.9 °F /  6.6 °C 30.24 in /  1023.9 hPa NNE 3.5 mph /  5.6 km/h 3.5 mph /  5.6 km/h 74 % 0.00 in /  0 mm
18:17 51.8 °F /  11 °C 43.8 °F /  6.6 °C 30.24 in /  1023.9 hPa NNE 3.5 mph /  5.6 km/h 3.5 mph /  5.6 km/h 74 % 0.00 in /  0 mm
18:22 51.6 °F /  10.9 °C 43.6 °F /  6.4 °C 30.24 in /  1023.9 hPa NNE 2.3 mph /  3.7 km/h 2.3 mph /  3.7 km/h 74 % 0.00 in /  0 mm
18:27 51.3 °F /  10.7 °C 43.6 °F /  6.4 °C 30.24 in /  1023.9 hPa NNE 2.3 mph /  3.7 km/h 2.3 mph /  3.7 km/h 75 % 0.00 in /  0 mm
18:32 51.3 °F /  10.7 °C 43.6 °F /  6.4 °C 30.24 in /  1023.9 hPa NNE 3.5 mph /  5.6 km/h 3.5 mph /  5.6 km/h 75 % 0.00 in /  0 mm
18:37 51.2 °F /  10.7 °C 43.5 °F /  6.4 °C 30.23 in /  1023.6 hPa NNE 3.5 mph /  5.6 km/h 3.5 mph /  5.6 km/h 75 % 0.00 in /  0 mm
18:42 51.4 °F /  10.8 °C 43.7 °F /  6.5 °C 30.23 in /  1023.6 hPa NNE 3.5 mph /  5.6 km/h 3.5 mph /  5.6 km/h 75 % 0.00 in /  0 mm
18:44 51.4 °F /  10.8 °C 43.7 °F /  6.5 °C 30.23 in /  1023.6 hPa NNE 3.5 mph /  5.6 km/h 3.5 mph /  5.6 km/h 75 % 0.00 in /  0 mm
18:49 51.6 °F /  10.9 °C 43.6 °F /  6.4 °C 30.24 in /  1023.9 hPa NNE 3.5 mph /  5.6 km/h 3.5 mph /  5.6 km/h 74 % 0.00 in /  0 mm
18:54 51.6 °F /  10.9 °C 43.2 °F /  6.2 °C 30.23 in /  1023.6 hPa NNE 3.5 mph /  5.6 km/h 3.5 mph /  5.6 km/h 73 % 0.00 in /  0 mm
18:59 51.7 °F /  10.9 °C 43.3 °F /  6.3 °C 30.23 in /  1023.6 hPa NNE 2.3 mph /  3.7 km/h 2.3 mph /  3.7 km/h 73 % 0.00 in /  0 mm
19:04 51.8 °F /  11 °C 43.4 °F /  6.3 °C 30.23 in /  1023.6 hPa NNE 3.5 mph /  5.6 km/h 3.5 mph /  5.6 km/h 73 % 0.00 in /  0 mm
19:09 51.9 °F /  11.1 °C 43.5 °F /  6.4 °C 30.23 in /  1023.6 hPa NNE 3.5 mph /  5.6 km/h 3.5 mph /  5.6 km/h 73 % 0.00 in /  0 mm
19:14 52.1 °F /  11.2 °C 43.3 °F /  6.3 °C 30.23 in /  1023.6 hPa NNE 3.5 mph /  5.6 km/h 3.5 mph /  5.6 km/h 72 % 0.00 in /  0 mm
19:19 52.1 °F /  11.2 °C 43.3 °F /  6.3 °C 30.23 in /  1023.6 hPa NNE 3.5 mph /  5.6 km/h 3.5 mph /  5.6 km/h 72 % 0.00 in /  0 mm
19:24 52.2 °F /  11.2 °C 43.1 °F /  6.2 °C 30.23 in /  1023.6 hPa NNE 3.5 mph /  5.6 km/h 3.5 mph /  5.6 km/h 71 % 0.00 in /  0 mm
19:29 52.2 °F /  11.2 °C 43.1 °F /  6.2 °C 30.24 in /  1023.9 hPa NNE 4.6 mph /  7.4 km/h 4.6 mph /  7.4 km/h 71 % 0.00 in /  0 mm
19:34 52.2 °F /  11.2 °C 43.1 °F /  6.2 °C 30.24 in /  1023.9 hPa NNE 3.5 mph /  5.6 km/h 3.5 mph /  5.6 km/h 71 % 0.00 in /  0 mm
19:39 52.0 °F /  11.1 °C 42.9 °F /  6.1 °C 30.23 in /  1023.6 hPa NNE 5.8 mph /  9.3 km/h 5.8 mph /  9.3 km/h 71 % 0.00 in /  0 mm
19:44 51.8 °F /  11 °C 42.7 °F /  5.9 °C 30.24 in /  1023.9 hPa NNE 3.5 mph /  5.6 km/h 3.5 mph /  5.6 km/h 71 % 0.00 in /  0 mm
19:49 51.6 °F /  10.9 °C 42.5 °F /  5.8 °C 30.24 in /  1023.9 hPa NNE 4.6 mph /  7.4 km/h 4.6 mph /  7.4 km/h 71 % 0.00 in /  0 mm
19:53 51.5 °F /  10.8 °C 42.4 °F /  5.8 °C 30.24 in /  1023.9 hPa NNE 5.8 mph /  9.3 km/h 5.8 mph /  9.3 km/h 71 % 0.00 in /  0 mm
19:58 51.4 °F /  10.8 °C 42.3 °F /  5.7 °C 30.24 in /  1023.9 hPa NNE 3.5 mph /  5.6 km/h 3.5 mph /  5.6 km/h 71 % 0.00 in /  0 mm
20:03 51.5 °F /  10.8 °C 42.4 °F /  5.8 °C 30.24 in /  1023.9 hPa NNE 4.6 mph /  7.4 km/h 4.6 mph /  7.4 km/h 71 % 0.00 in /  0 mm
20:08 51.5 °F /  10.8 °C 42.0 °F /  5.6 °C 30.24 in /  1023.9 hPa NNE 3.5 mph /  5.6 km/h 3.5 mph /  5.6 km/h 70 % 0.00 in /  0 mm
20:13 51.5 °F /  10.8 °C 42.0 °F /  5.6 °C 30.24 in /  1023.9 hPa NNE 3.5 mph /  5.6 km/h 3.5 mph /  5.6 km/h 70 % 0.00 in /  0 mm
Ararat Weather
Compliments of Weather Underground - 2.25 mb
Click here to send mail.


ABOUT

Live weather data from Ararat, Victoria, Australia, 3377
Data uploaded from Cumulus every 5 minutes to Weather Underground.
This site then downloads the raw data for formatting and display.
Metric and imperial data can be displayed. Graphs and historical data available.
Includes Sun and Moon times and rain image live from BOM.

Check out Ararat Weather on Facebook, Twitter and Google +

Help support ongoing costs by checking out the ads





Follow @AraratWeather